createdAt,value
2018-08-06T00:00:28.757Z,21.50
2018-08-06T00:02:57.313Z,21.50
2018-08-06T00:05:25.824Z,21.40
2018-08-06T00:07:54.283Z,21.40
2018-08-06T00:10:24.480Z,21.50
2018-08-06T00:12:53.001Z,21.40
2018-08-06T00:15:21.537Z,21.40
2018-08-06T00:17:50.036Z,21.30
2018-08-06T00:20:18.589Z,21.30
2018-08-06T00:22:47.066Z,21.40
2018-08-06T00:25:16.574Z,21.40
2018-08-06T00:27:45.385Z,21.30
2018-08-06T00:30:16.917Z,21.30
2018-08-06T00:32:46.244Z,21.30
2018-08-06T00:35:15.035Z,21.30
2018-08-06T00:37:43.564Z,21.30
2018-08-06T00:40:14.568Z,21.30
2018-08-06T00:42:43.896Z,21.20
2018-08-06T00:45:14.445Z,21.10
2018-08-06T00:47:43.145Z,21.10
2018-08-06T00:50:12.252Z,21.00
2018-08-06T00:52:40.691Z,21.00
2018-08-06T00:55:11.542Z,21.00
2018-08-06T00:57:40.435Z,20.90
2018-08-06T01:00:11.469Z,20.90
2018-08-06T01:02:39.994Z,20.90
2018-08-06T01:05:09.878Z,20.90
2018-08-06T01:07:39.045Z,20.80
2018-08-06T01:10:09.807Z,20.70
2018-08-06T01:12:39.392Z,20.60
2018-08-06T01:15:09.068Z,20.50
2018-08-06T01:17:37.544Z,20.50
2018-08-06T01:20:07.160Z,20.50
2018-08-06T01:22:35.652Z,20.50
2018-08-06T01:25:04.236Z,20.50
2018-08-06T01:27:32.841Z,20.50
2018-08-06T01:30:01.269Z,20.50
2018-08-06T01:32:29.750Z,20.50
2018-08-06T01:34:58.193Z,20.50
2018-08-06T01:37:26.675Z,20.50
2018-08-06T01:39:55.179Z,20.40
2018-08-06T01:42:23.761Z,20.40
2018-08-06T01:44:52.235Z,20.40
2018-08-06T01:47:20.719Z,20.40
2018-08-06T01:49:49.624Z,20.30
2018-08-06T01:52:18.114Z,20.30
2018-08-06T01:54:46.557Z,20.30
2018-08-06T01:57:15.030Z,20.30
2018-08-06T01:59:43.560Z,20.30
2018-08-06T02:02:12.068Z,20.30
2018-08-06T02:04:40.500Z,20.20
2018-08-06T02:07:09.330Z,20.20
2018-08-06T02:09:37.926Z,20.20
2018-08-06T02:12:06.953Z,20.20
2018-08-06T02:14:36.304Z,20.20
2018-08-06T02:17:04.856Z,20.10
2018-08-06T02:19:33.368Z,20.10
2018-08-06T02:22:01.878Z,20.20
2018-08-06T02:24:30.334Z,20.10
2018-08-06T02:26:58.773Z,20.10
2018-08-06T02:29:27.258Z,20.00
2018-08-06T02:31:55.717Z,20.00
2018-08-06T02:34:24.213Z,19.90
2018-08-06T02:36:52.641Z,20.00
2018-08-06T02:39:21.125Z,19.90
2018-08-06T02:41:49.584Z,19.90
2018-08-06T02:44:18.081Z,19.80
2018-08-06T02:46:46.562Z,19.80
2018-08-06T02:49:15.056Z,19.70
2018-08-06T02:51:43.560Z,19.70
2018-08-06T02:54:11.997Z,19.60
2018-08-06T02:56:40.476Z,19.60
2018-08-06T02:59:08.920Z,19.60
2018-08-06T03:01:37.413Z,19.50
2018-08-06T03:04:06.014Z,19.50
2018-08-06T03:06:34.462Z,19.40
2018-08-06T03:09:03.030Z,19.40
2018-08-06T03:11:31.506Z,19.30
2018-08-06T03:13:59.961Z,19.30
2018-08-06T03:16:28.425Z,19.40
2018-08-06T03:18:56.886Z,19.30
2018-08-06T03:21:25.365Z,19.30
2018-08-06T03:23:53.805Z,19.30
2018-08-06T03:26:22.282Z,19.30
2018-08-06T03:28:50.805Z,19.30
2018-08-06T03:31:19.318Z,19.30
2018-08-06T03:33:47.789Z,19.30
2018-08-06T03:38:44.377Z,19.30
2018-08-06T03:41:12.841Z,19.20
2018-08-06T03:43:41.313Z,19.10
2018-08-06T03:46:09.740Z,19.10
2018-08-06T03:48:38.181Z,19.10
2018-08-06T03:51:06.632Z,19.10
2018-08-06T03:53:35.134Z,19.20
2018-08-06T03:56:03.620Z,19.10
2018-08-06T03:58:32.061Z,19.20
2018-08-06T04:01:00.501Z,19.20
2018-08-06T04:03:28.974Z,19.10
2018-08-06T04:05:57.408Z,19.20
2018-08-06T04:08:25.873Z,19.20
2018-08-06T04:13:22.532Z,19.10
2018-08-06T04:15:50.953Z,19.10
2018-08-06T04:18:19.393Z,19.10
2018-08-06T04:20:47.840Z,19.10
2018-08-06T04:23:16.285Z,19.10
2018-08-06T04:25:44.767Z,19.10
2018-08-06T04:28:13.225Z,19.10
2018-08-06T04:30:41.696Z,19.10
2018-08-06T04:33:10.163Z,19.10
2018-08-06T04:35:38.615Z,19.10
2018-08-06T04:38:07.100Z,19.20
2018-08-06T04:40:35.566Z,19.30
2018-08-06T04:43:04.026Z,19.30
2018-08-06T04:45:32.546Z,19.30
2018-08-06T04:48:01.001Z,19.50
2018-08-06T04:50:29.471Z,19.60
2018-08-06T04:52:57.904Z,19.60
2018-08-06T04:55:26.327Z,19.70
2018-08-06T04:57:54.789Z,19.80
2018-08-06T05:00:23.235Z,19.80
2018-08-06T05:02:51.716Z,19.90
2018-08-06T05:05:20.184Z,19.90
2018-08-06T05:07:48.628Z,19.90
2018-08-06T05:10:17.076Z,20.00
2018-08-06T05:12:45.532Z,20.00
2018-08-06T05:15:14.052Z,20.10
2018-08-06T05:17:42.508Z,20.10
2018-08-06T05:20:10.986Z,20.20
2018-08-06T05:22:39.465Z,20.30
2018-08-06T05:25:07.964Z,20.40
2018-08-06T05:27:36.396Z,20.40
2018-08-06T05:30:07.361Z,20.50
2018-08-06T05:32:35.865Z,20.60
2018-08-06T05:35:04.821Z,20.80
2018-08-06T05:37:33.352Z,20.90
2018-08-06T05:40:01.926Z,21.60
2018-08-06T05:42:30.274Z,22.60
2018-08-06T05:44:58.716Z,23.20
2018-08-06T05:47:27.196Z,23.50
2018-08-06T05:49:55.644Z,24.00
2018-08-06T05:52:24.129Z,24.30
2018-08-06T05:54:52.609Z,24.70
2018-08-06T05:57:21.134Z,25.00
2018-08-06T05:59:49.589Z,25.00
2018-08-06T06:02:18.069Z,25.40
2018-08-06T06:04:46.569Z,26.20
2018-08-06T06:07:15.080Z,26.80
2018-08-06T06:09:43.553Z,26.40
2018-08-06T06:12:12.051Z,26.20
2018-08-06T06:14:40.537Z,26.10
2018-08-06T06:17:09.053Z,25.90
2018-08-06T06:19:37.531Z,26.30
2018-08-06T06:22:06.021Z,26.30
2018-08-06T06:24:34.488Z,26.50
2018-08-06T06:27:03.034Z,27.00
2018-08-06T06:29:31.549Z,27.20
2018-08-06T06:32:00.018Z,26.90
2018-08-06T06:34:28.537Z,26.80
2018-08-06T06:36:56.945Z,27.00
2018-08-06T06:39:25.396Z,26.50
2018-08-06T06:41:53.897Z,26.70
2018-08-06T06:44:22.393Z,26.70
2018-08-06T06:46:50.887Z,27.20
2018-08-06T06:49:19.428Z,27.40
2018-08-06T06:51:47.850Z,27.60
2018-08-06T06:54:16.392Z,27.80
2018-08-06T06:56:44.800Z,28.00
2018-08-06T06:59:13.302Z,28.40
2018-08-06T07:01:41.761Z,28.50
2018-08-06T07:04:10.302Z,29.40
2018-08-06T07:06:38.808Z,29.80
2018-08-06T07:09:09.818Z,29.90
2018-08-06T07:11:38.294Z,30.30
2018-08-06T07:14:06.856Z,30.80
2018-08-06T07:16:35.341Z,30.70
2018-08-06T07:19:03.882Z,29.80
2018-08-06T07:21:32.294Z,30.20
2018-08-06T07:24:00.741Z,30.20
2018-08-06T07:26:29.321Z,30.40
2018-08-06T07:28:57.784Z,31.00
2018-08-06T07:31:26.233Z,31.40
2018-08-06T07:33:54.716Z,31.50
2018-08-06T07:36:23.225Z,31.10
2018-08-06T07:38:51.723Z,30.50
2018-08-06T07:41:20.338Z,31.20
2018-08-06T07:43:48.771Z,31.60
2018-08-06T07:46:17.277Z,32.00
2018-08-06T07:48:45.788Z,32.50
2018-08-06T07:51:14.261Z,31.90
2018-08-06T07:53:42.718Z,31.40
2018-08-06T07:56:11.192Z,31.80
2018-08-06T07:58:39.690Z,32.30
2018-08-06T08:01:08.190Z,32.80
2018-08-06T08:03:36.665Z,32.70
2018-08-06T08:06:05.170Z,32.60
2018-08-06T08:11:01.797Z,33.10
2018-08-06T08:13:30.262Z,32.80
2018-08-06T08:15:58.720Z,32.70
2018-08-06T08:18:27.232Z,32.70
2018-08-06T08:20:55.738Z,32.40
2018-08-06T08:23:24.200Z,33.10
2018-08-06T08:25:52.693Z,34.20
2018-08-06T08:28:21.173Z,35.30
2018-08-06T08:30:49.733Z,35.50
2018-08-06T08:33:18.174Z,34.30
2018-08-06T08:35:46.641Z,33.40
2018-08-06T08:38:15.131Z,32.70
2018-08-06T08:40:43.573Z,33.40
2018-08-06T08:43:12.036Z,33.00
2018-08-06T08:45:40.575Z,33.10
2018-08-06T08:48:09.041Z,33.90
2018-08-06T08:50:37.542Z,34.90
2018-08-06T08:53:06.073Z,34.20
2018-08-06T08:55:34.618Z,34.20
2018-08-06T08:58:03.117Z,33.90
2018-08-06T09:00:31.616Z,33.10
2018-08-06T09:03:00.104Z,33.10
2018-08-06T09:05:28.597Z,34.80
2018-08-06T09:07:57.099Z,35.70
2018-08-06T09:10:25.601Z,35.90
2018-08-06T09:12:54.045Z,36.90
2018-08-06T09:15:24.541Z,36.90
2018-08-06T09:17:53.072Z,36.40
2018-08-06T09:20:21.757Z,35.80
2018-08-06T09:22:50.224Z,36.60
2018-08-06T09:25:18.781Z,36.80
2018-08-06T09:27:48.740Z,36.10
2018-08-06T09:30:19.599Z,36.20
2018-08-06T09:32:50.218Z,35.90
2018-08-06T09:35:19.321Z,34.50
2018-08-06T09:37:47.781Z,33.90
2018-08-06T09:40:17.619Z,34.00
2018-08-06T09:42:47.028Z,33.10
2018-08-06T09:45:16.707Z,33.00
2018-08-06T09:47:46.497Z,32.60
2018-08-06T09:50:15.804Z,32.70
2018-08-06T09:52:45.329Z,33.60
2018-08-06T09:55:17.520Z,34.90
2018-08-06T09:57:46.456Z,36.00
2018-08-06T10:00:21.702Z,36.80
2018-08-06T10:02:51.089Z,36.30
2018-08-06T10:05:20.821Z,36.60
2018-08-06T10:07:49.343Z,36.30
2018-08-06T10:10:17.850Z,36.50
2018-08-06T10:12:46.760Z,37.10
2018-08-06T10:15:15.636Z,36.90
2018-08-06T10:17:45.159Z,38.00
2018-08-06T10:20:16.882Z,38.70
2018-08-06T10:22:45.436Z,38.40
2018-08-06T10:25:14.761Z,39.30
2018-08-06T10:27:44.081Z,38.70
2018-08-06T10:30:14.444Z,38.30
2018-08-06T10:32:43.096Z,37.70
2018-08-06T10:35:12.885Z,38.30
2018-08-06T10:37:41.381Z,38.70
2018-08-06T10:40:15.113Z,39.20
2018-08-06T10:42:44.262Z,39.70
2018-08-06T10:45:14.909Z,40.80
2018-08-06T10:47:43.453Z,40.40
2018-08-06T10:50:12.277Z,39.70
2018-08-06T10:52:40.767Z,39.00
2018-08-06T10:55:10.264Z,39.50
2018-08-06T10:57:40.056Z,39.80
2018-08-06T11:00:11.311Z,39.50
2018-08-06T11:02:39.848Z,40.50
2018-08-06T11:05:09.897Z,40.40
2018-08-06T11:07:38.504Z,39.50
2018-08-06T11:10:10.039Z,38.30
2018-08-06T11:12:39.250Z,38.10
2018-08-06T11:15:11.810Z,38.20
2018-08-06T11:20:10.800Z,40.20
2018-08-06T11:27:38.465Z,39.40
2018-08-06T11:42:29.660Z,39.00
2018-08-06T11:44:58.093Z,38.80
2018-08-06T12:22:02.504Z,39.20
2018-08-06T12:24:31.004Z,38.80
2018-08-06T12:29:28.129Z,38.00
2018-08-06T12:34:25.088Z,37.60
2018-08-06T12:36:53.559Z,37.50
2018-08-06T12:41:50.155Z,38.90
2018-08-06T12:54:12.033Z,38.50
2018-08-06T12:56:40.481Z,38.30
2018-08-06T12:59:08.982Z,38.30
2018-08-06T13:01:37.477Z,38.40
2018-08-06T13:16:27.120Z,38.80
2018-08-06T13:18:55.696Z,38.80
2018-08-06T13:21:24.196Z,38.60
2018-08-06T13:23:52.709Z,38.50
2018-08-06T13:26:21.238Z,38.40
2018-08-06T13:28:49.849Z,38.60
2018-08-06T13:33:46.519Z,38.60
2018-08-06T13:36:14.989Z,38.60
2018-08-06T13:38:43.490Z,38.20
2018-08-06T13:41:11.969Z,38.20
2018-08-06T13:43:40.405Z,37.70
2018-08-06T13:46:08.907Z,37.70
2018-08-06T13:48:37.358Z,37.80
2018-08-06T13:51:05.889Z,37.70
2018-08-06T13:53:34.415Z,37.40
2018-08-06T13:56:02.970Z,37.40
2018-08-06T13:58:31.425Z,37.50
2018-08-06T14:00:59.914Z,37.60
2018-08-06T14:08:25.155Z,37.70
2018-08-06T14:10:53.588Z,37.70
2018-08-06T14:13:22.072Z,38.00
2018-08-06T14:15:50.523Z,38.00
2018-08-06T14:20:47.335Z,38.10
2018-08-06T14:23:15.801Z,37.60
2018-08-06T14:25:44.305Z,37.20
2018-08-06T14:33:09.111Z,36.70
2018-08-06T14:40:34.005Z,36.90
2018-08-06T14:45:30.613Z,37.00
2018-08-06T14:50:27.237Z,36.40
2018-08-06T14:52:55.752Z,36.10
2018-08-06T14:55:24.331Z,36.40
2018-08-06T14:57:52.842Z,36.50
2018-08-06T15:00:22.345Z,36.20
2018-08-06T15:05:20.430Z,35.80
2018-08-06T15:12:45.475Z,35.90
2018-08-06T15:20:13.845Z,35.70
2018-08-06T15:22:42.342Z,35.60
2018-08-06T15:25:14.461Z,35.20
2018-08-06T15:27:43.286Z,35.00
2018-08-06T15:30:11.845Z,34.80
2018-08-06T15:32:40.340Z,34.90
2018-08-06T15:35:09.767Z,35.00
2018-08-06T15:37:39.288Z,35.10
2018-08-06T15:40:16.761Z,34.80
2018-08-06T15:42:45.305Z,34.80
2018-08-06T15:45:14.329Z,34.80
2018-08-06T15:47:43.686Z,34.70
2018-08-06T15:50:19.369Z,34.60
2018-08-06T15:52:47.936Z,34.60
2018-08-06T15:55:16.462Z,34.50
2018-08-06T15:57:44.993Z,34.40
2018-08-06T16:00:15.972Z,34.40
2018-08-06T16:02:45.049Z,34.40
2018-08-06T16:05:14.517Z,34.40
2018-08-06T16:10:12.137Z,34.40
2018-08-06T16:12:40.841Z,34.20
2018-08-06T16:15:11.036Z,34.10
2018-08-06T16:17:40.342Z,34.10
2018-08-06T16:20:10.992Z,33.90
2018-08-06T16:22:40.172Z,33.90
2018-08-06T16:25:09.457Z,33.80
2018-08-06T16:27:38.032Z,33.80
2018-08-06T16:30:15.963Z,33.80
2018-08-06T16:32:45.222Z,33.70
2018-08-06T16:35:13.730Z,33.60
2018-08-06T16:40:11.373Z,33.50
2018-08-06T16:42:39.917Z,33.50
2018-08-06T16:45:09.112Z,33.50
2018-08-06T16:47:38.376Z,33.60
2018-08-06T16:52:36.262Z,33.60
2018-08-06T16:55:05.645Z,33.50
2018-08-06T16:57:34.109Z,33.40
2018-08-06T17:00:02.656Z,33.50
2018-08-06T17:02:31.145Z,33.40
2018-08-06T17:04:59.685Z,33.40
2018-08-06T17:07:28.145Z,33.40
2018-08-06T17:09:56.747Z,33.30
2018-08-06T17:12:25.231Z,33.20
2018-08-06T17:14:53.724Z,33.10
2018-08-06T17:19:50.376Z,33.10
2018-08-06T17:22:18.947Z,33.10
2018-08-06T17:24:47.353Z,33.00
2018-08-06T17:32:12.174Z,32.80
2018-08-06T17:34:40.608Z,32.80
2018-08-06T17:37:09.108Z,32.80
2018-08-06T17:42:05.841Z,32.80
2018-08-06T17:47:02.734Z,32.60
2018-08-06T17:49:31.227Z,32.50
2018-08-06T17:51:59.813Z,32.40
2018-08-06T17:54:28.267Z,32.60
2018-08-06T17:56:56.777Z,32.70
2018-08-06T17:59:25.221Z,32.60
2018-08-06T18:01:53.705Z,32.60
2018-08-06T18:04:22.182Z,32.50
2018-08-06T18:06:50.633Z,32.40
2018-08-06T18:09:19.105Z,32.30
2018-08-06T18:11:47.602Z,32.20
2018-08-06T18:14:16.038Z,32.20
2018-08-06T18:16:44.473Z,32.10
2018-08-06T18:19:12.948Z,32.10
2018-08-06T18:21:41.413Z,32.00
2018-08-06T18:24:09.895Z,31.90
2018-08-06T18:26:38.359Z,31.90
2018-08-06T18:29:06.822Z,31.80
2018-08-06T18:31:35.344Z,31.70
2018-08-06T18:34:03.838Z,31.70
2018-08-06T18:36:32.309Z,31.60
2018-08-06T18:39:00.754Z,31.50
2018-08-06T18:41:29.213Z,31.40
2018-08-06T18:43:57.720Z,31.30
2018-08-06T18:46:26.172Z,31.30
2018-08-06T18:48:54.689Z,31.30
2018-08-06T18:51:23.189Z,31.20
2018-08-06T18:53:51.633Z,31.00
2018-08-06T18:56:20.101Z,30.90
2018-08-06T18:58:48.548Z,30.80
2018-08-06T19:01:17.053Z,30.60
2018-08-06T19:03:45.567Z,30.40
2018-08-06T19:06:14.053Z,30.30
2018-08-06T19:08:42.526Z,30.20
2018-08-06T19:11:10.997Z,30.10
2018-08-06T19:13:44.713Z,30.00
2018-08-06T19:16:13.337Z,29.80
2018-08-06T19:18:47.297Z,29.70
2018-08-06T19:21:15.780Z,29.60
2018-08-06T19:23:44.291Z,29.50
2018-08-06T19:26:12.798Z,29.40
2018-08-06T19:28:41.311Z,29.50
2018-08-06T19:31:17.107Z,29.40
2018-08-06T19:33:45.642Z,29.30
2018-08-06T19:36:14.104Z,29.30
2018-08-06T19:38:42.549Z,29.20
2018-08-06T19:41:11.072Z,29.20
2018-08-06T19:43:39.916Z,29.20
2018-08-06T19:46:08.985Z,29.10
2018-08-06T19:48:37.555Z,29.10
2018-08-06T19:51:06.021Z,29.00
2018-08-06T19:53:34.495Z,29.00
2018-08-06T19:56:08.252Z,29.00
2018-08-06T20:01:04.894Z,28.90
2018-08-06T20:03:33.533Z,28.90
2018-08-06T20:08:30.179Z,28.80
2018-08-06T20:10:58.733Z,28.70
2018-08-06T20:13:27.241Z,28.60
2018-08-06T20:18:23.996Z,28.50
2018-08-06T20:20:52.472Z,28.50
2018-08-06T20:23:20.978Z,28.50
2018-08-06T20:25:49.780Z,28.50
2018-08-06T20:28:18.254Z,28.50
2018-08-06T20:30:47.645Z,28.40
2018-08-06T20:33:16.140Z,28.40
2018-08-06T20:38:12.727Z,28.40
2018-08-06T20:40:41.199Z,28.30
2018-08-06T20:43:09.744Z,28.30
2018-08-06T20:45:38.205Z,28.20
2018-08-06T20:50:34.873Z,28.10
2018-08-06T20:53:03.366Z,28.10
2018-08-06T20:55:31.889Z,28.10
2018-08-06T20:58:00.363Z,27.90
2018-08-06T21:00:28.864Z,27.90
2018-08-06T21:02:57.425Z,27.80
2018-08-06T21:07:54.009Z,27.80
2018-08-06T21:10:22.598Z,27.80
2018-08-06T21:12:51.066Z,27.80
2018-08-06T21:15:19.559Z,27.80
2018-08-06T21:17:48.095Z,27.70
2018-08-06T21:20:17.972Z,27.70
2018-08-06T21:22:47.600Z,27.80
2018-08-06T21:25:16.451Z,27.70
2018-08-06T21:27:46.214Z,27.60
2018-08-06T21:30:16.880Z,27.60
2018-08-06T21:32:51.328Z,27.50
2018-08-06T21:35:20.601Z,27.50
2018-08-06T21:40:19.116Z,27.30
2018-08-06T21:42:47.980Z,27.30
2018-08-06T21:45:16.521Z,27.20
2018-08-06T21:47:45.250Z,27.20
2018-08-06T21:50:14.261Z,27.10
2018-08-06T21:52:42.756Z,26.90
2018-08-06T21:55:11.508Z,26.80
2018-08-06T21:57:40.109Z,26.80
2018-08-06T22:00:31.827Z,26.80
2018-08-06T22:03:00.512Z,26.70
2018-08-06T22:05:28.986Z,26.80
2018-08-06T22:07:57.473Z,26.80
2018-08-06T22:10:26.093Z,26.70
2018-08-06T22:12:54.581Z,26.60
2018-08-06T22:17:51.174Z,26.50
2018-08-06T22:20:19.628Z,26.50
2018-08-06T22:22:48.111Z,26.30
2018-08-06T22:25:16.633Z,26.20
2018-08-06T22:30:13.253Z,26.00
2018-08-06T22:35:12.069Z,25.90
2018-08-06T22:37:41.242Z,25.90
2018-08-06T22:40:11.648Z,25.80
2018-08-06T22:45:10.053Z,25.70
2018-08-06T22:50:08.648Z,25.70
2018-08-06T22:52:37.472Z,25.60
2018-08-06T22:57:34.398Z,25.40
2018-08-06T23:00:04.142Z,25.30
2018-08-06T23:02:32.593Z,25.30
2018-08-06T23:07:29.213Z,25.20
2018-08-06T23:09:57.734Z,25.20
2018-08-06T23:12:26.249Z,25.10
2018-08-06T23:14:54.733Z,25.10
2018-08-06T23:17:23.188Z,25.00
2018-08-06T23:19:51.705Z,24.90
2018-08-06T23:22:20.185Z,24.80
2018-08-06T23:24:48.636Z,24.70
2018-08-06T23:27:17.092Z,24.70
2018-08-06T23:29:45.561Z,24.50
2018-08-06T23:32:14.010Z,24.40
2018-08-06T23:34:42.478Z,24.40
2018-08-06T23:37:10.940Z,24.40
2018-08-06T23:39:39.467Z,24.40
2018-08-06T23:44:36.052Z,24.50
2018-08-06T23:47:04.633Z,24.50
2018-08-06T23:49:33.104Z,24.60
2018-08-06T23:52:01.609Z,24.70
2018-08-06T23:54:30.107Z,24.60
2018-08-06T23:56:58.576Z,24.50
2018-08-06T23:59:27.092Z,24.40
